Time;durP1;ratioP1;P1;durP2;ratioP2;P2;SDS_P1;SDS_P2;PMS_P1;PMS_P2;Temp;Humidity;BMP_temperature;BMP_pressure;BME280_temperature;BME280_humidity;BME280_pressure;Samples;Min_cycle;Max_cycle;Signal;HPM_P1;HPM_P2
2021/12/09 00:02:20;;;;;;;;;;;;;;;23.13;4.08;101482.91;5074343;28;19956;-71
2021/12/09 00:04:45;;;;;;;;;;;;;;;23.08;4.02;101486.38;5074093;28;20379;-71
2021/12/09 00:07:11;;;;;;;;;;;;;;;23.05;4.23;101487.69;5074206;28;19916;-71
2021/12/09 00:09:36;;;;;;;;;;;;;;;23.10;4.07;101488.84;5074321;28;19927;-71
2021/12/09 00:12:01;;;;;;;;;;;;;;;23.06;4.10;101492.06;5074454;28;20010;-71
2021/12/09 00:14:28;;;;;;;;;;;;;;;23.05;4.14;101493.13;5074131;28;20300;-71
2021/12/09 00:16:53;;;;;;;;;;;;;;;23.11;4.27;101490.50;5074147;28;19970;-71
2021/12/09 00:19:19;;;;;;;;;;;;;;;23.09;4.11;101492.66;5074121;28;19921;-71
2021/12/09 00:21:44;;;;;;;;;;;;;;;23.11;4.19;101493.22;5085361;28;19930;-71
2021/12/09 00:24:09;;;;;;;;;;;;;;;23.06;4.27;101492.06;5091540;28;19927;-71
2021/12/09 00:26:34;;;;;;;;;;;;;;;23.10;4.24;101483.41;5074261;28;20415;-71
2021/12/09 00:29:00;;;;;;;;;;;;;;;23.08;4.14;101480.06;5074168;28;20394;-70
2021/12/09 00:31:25;;;;;;;;;;;;;;;23.05;4.33;101482.22;5074189;28;20370;-70
2021/12/09 00:33:50;;;;;;;;;;;;;;;23.06;4.35;101483.06;5073996;28;19923;-70
2021/12/09 00:36:26;;;;;;;;;;;;;;;23.08;4.14;101474.63;5074201;28;19917;-70
2021/12/09 00:38:52;;;;;;;;;;;;;;;23.05;4.28;101482.22;5074486;28;19917;-70
2021/12/09 00:41:18;;;;;;;;;;;;;;;23.02;4.31;101481.84;5073642;28;20311;-70
2021/12/09 00:43:43;;;;;;;;;;;;;;;23.06;4.43;101492.06;5073684;28;19917;-70
2021/12/09 00:46:08;;;;;;;;;;;;;;;23.05;4.38;101487.69;5055935;28;19962;-70
2021/12/09 00:48:34;;;;;;;;;;;;;;;23.06;4.40;101494.78;5073581;28;20359;-70
2021/12/09 00:50:59;;;;;;;;;;;;;;;23.05;4.39;101490.41;5055570;28;19920;-70
2021/12/09 00:53:25;;;;;;;;;;;;;;;23.03;4.39;101489.78;5073615;28;19942;-70
2021/12/09 00:55:50;;;;;;;;;;;;;;;23.03;4.44;101478.06;5073423;28;19961;-72
2021/12/09 00:58:15;;;;;;;;;;;;;;;22.99;4.48;101483.19;5073394;28;19921;-72
2021/12/09 01:00:40;;;;;;;;;;;;;;;23.03;4.43;101489.78;5073771;28;20020;-71
2021/12/09 01:03:06;;;;;;;;;;;;;;;23.00;4.39;101478.56;5073561;28;20255;-71
2021/12/09 01:05:31;;;;;;;;;;;;;;;23.01;4.46;101483.75;5073876;28;19916;-71
2021/12/09 01:07:56;;;;;;;;;;;;;;;23.05;4.52;101486.81;5073727;28;20375;-71
2021/12/09 01:10:21;;;;;;;;;;;;;;;23.02;4.57;101485.41;5073477;28;19924;-71
2021/12/09 01:12:47;;;;;;;;;;;;;;;23.07;4.53;101484.72;5055653;28;19925;-71
2021/12/09 01:15:12;;;;;;;;;;;;;;;23.09;4.46;101493.47;5055567;28;20000;-71
2021/12/09 01:17:38;;;;;;;;;;;;;;;23.07;4.48;101490.16;5073177;28;19925;-71
2021/12/09 01:20:03;;;;;;;;;;;;;;;23.03;4.51;101500.69;5073542;28;19924;-71
2021/12/09 01:22:36;;;;;;;;;;;;;;;23.02;4.47;101492.75;5072908;28;20003;-71
2021/12/09 01:25:02;;;;;;;;;;;;;;;23.06;4.64;101483.88;5082208;28;19960;-71
2021/12/09 01:27:30;;;;;;;;;;;;;;;23.05;4.48;101487.69;5093819;28;19916;-71
2021/12/09 01:29:56;;;;;;;;;;;;;;;23.02;4.54;101493.56;5093675;28;19916;-71
2021/12/09 01:32:27;;;;;;;;;;;;;;;23.06;4.66;101492.06;5093334;28;19924;-71
2021/12/09 01:34:52;;;;;;;;;;;;;;;23.04;4.58;101502.38;5093457;28;19941;-71
2021/12/09 01:37:17;;;;;;;;;;;;;;;23.03;4.51;101495.25;5093586;28;19916;-71
2021/12/09 01:39:43;;;;;;;;;;;;;;;23.02;4.72;101503.66;5093729;28;20363;-70
2021/12/09 01:42:08;;;;;;;;;;;;;;;23.03;4.63;101500.69;5094747;28;20354;-72
2021/12/09 01:44:34;;;;;;;;;;;;;;;23.04;4.78;101502.38;5097220;28;19916;-71
2021/12/09 01:46:59;;;;;;;;;;;;;;;23.08;4.64;101504.59;5097057;28;19916;-71
2021/12/09 01:49:24;;;;;;;;;;;;;;;23.03;4.73;101499.88;5096853;28;19920;-70
2021/12/09 01:51:49;;;;;;;;;;;;;;;23.01;4.74;101497.41;5097157;28;19916;-71
2021/12/09 01:54:15;;;;;;;;;;;;;;;23.00;4.85;101500.34;5097189;28;19920;-71
2021/12/09 01:56:40;;;;;;;;;;;;;;;22.99;4.81;101505.00;5097055;28;19916;-70
2021/12/09 01:59:05;;;;;;;;;;;;;;;22.99;4.81;101510.44;5061409;28;19920;-70
2021/12/09 02:01:31;;;;;;;;;;;;;;;22.98;4.74;101510.69;5097113;28;19916;-71
2021/12/09 02:03:56;;;;;;;;;;;;;;;22.98;4.90;101503.31;5096497;28;19920;-71
2021/12/09 02:06:22;;;;;;;;;;;;;;;22.94;5.03;101513.06;5096511;28;19916;-71
2021/12/09 02:08:47;;;;;;;;;;;;;;;22.98;4.88;101522.41;5096541;28;19920;-71
2021/12/09 02:11:13;;;;;;;;;;;;;;;23.00;4.91;101517.53;5096796;28;19916;-71
2021/12/09 02:13:38;;;;;;;;;;;;;;;22.98;4.94;101519.69;5096326;28;20389;-71
2021/12/09 02:16:03;;;;;;;;;;;;;;;23.00;4.91;101508.53;5078616;28;19916;-71
2021/12/09 02:18:29;;;;;;;;;;;;;;;23.00;4.87;101511.25;5097165;28;20012;-71
2021/12/09 02:21:06;;;;;;;;;;;;;;;22.99;4.83;101512.31;5096120;28;19970;-71
2021/12/09 02:23:32;;;;;;;;;;;;;;;22.95;4.99;101513.88;5096145;28;19923;-71
2021/12/09 02:25:57;;;;;;;;;;;;;;;22.96;5.05;101508.19;5081214;28;19921;-71
2021/12/09 02:28:22;;;;;;;;;;;;;;;23.01;5.03;101508.31;5076189;28;20382;-71
2021/12/09 02:30:47;;;;;;;;;;;;;;;22.97;5.10;101504.38;5076124;28;19943;-71
2021/12/09 02:33:13;;;;;;;;;;;;;;;22.92;5.03;101512.50;5076134;28;19924;-71
2021/12/09 02:35:38;;;;;;;;;;;;;;;22.95;5.01;101503.81;5075718;28;19917;-71
2021/12/09 02:38:03;;;;;;;;;;;;;;;22.97;5.03;101501.66;5075904;28;19950;-71
2021/12/09 02:40:30;;;;;;;;;;;;;;;22.98;4.98;101516.97;5075904;28;19921;-71
2021/12/09 02:42:55;;;;;;;;;;;;;;;22.97;4.99;101507.09;5057982;28;19916;-71
2021/12/09 02:45:21;;;;;;;;;;;;;;;23.01;5.17;101502.84;5075886;28;20311;-70
2021/12/09 02:47:46;;;;;;;;;;;;;;;23.03;5.06;101511.59;5075755;28;19924;-70
2021/12/09 02:50:11;;;;;;;;;;;;;;;23.01;5.12;101504.75;5075792;28;19916;-70
2021/12/09 02:52:38;;;;;;;;;;;;;;;23.04;5.10;101513.28;5075376;28;20366;-70
2021/12/09 02:55:04;;;;;;;;;;;;;;;23.02;5.03;101507.22;5075725;28;19916;-70
2021/12/09 02:57:29;;;;;;;;;;;;;;;23.04;5.11;101507.81;5076027;28;19928;-70
2021/12/09 02:59:54;;;;;;;;;;;;;;;22.98;5.13;101508.78;5075619;28;20367;-70
2021/12/09 03:02:20;;;;;;;;;;;;;;;22.96;5.17;101501.94;5075501;28;20255;-70
2021/12/09 03:04:47;;;;;;;;;;;;;;;22.97;5.17;101509.03;5075424;28;19916;-70
2021/12/09 03:07:16;;;;;;;;;;;;;;;23.02;5.11;101514.56;5075463;28;19920;-70
2021/12/09 03:09:51;;;;;;;;;;;;;;;22.99;5.29;101509.59;5075349;28;19920;-70
2021/12/09 03:12:18;;;;;;;;;;;;;;;22.94;5.37;101502.16;5075277;28;20015;-70
2021/12/09 03:14:43;;;;;;;;;;;;;;;22.98;5.24;101508.78;5075234;28;19920;-70
2021/12/09 03:17:08;;;;;;;;;;;;;;;22.97;5.38;101506.28;5075278;28;19931;-71
2021/12/09 03:19:33;;;;;;;;;;;;;;;22.99;5.39;101505.00;5075207;28;19916;-71
2021/12/09 03:21:59;;;;;;;;;;;;;;;23.01;5.20;101502.84;5074717;28;20383;-72
2021/12/09 03:24:24;;;;;;;;;;;;;;;22.96;5.43;101504.66;5076210;28;19917;-71
2021/12/09 03:26:54;;;;;;;;;;;;;;;22.94;5.34;101512.22;5096019;28;20299;-70
2021/12/09 03:29:20;;;;;;;;;;;;;;;22.96;5.37;101505.47;5095408;28;19916;-70
2021/12/09 03:31:45;;;;;;;;;;;;;;;22.94;5.38;101518.53;5095428;28;20255;-71
2021/12/09 03:34:11;;;;;;;;;;;;;;;23.00;5.29;101516.72;5095382;28;19927;-70
2021/12/09 03:36:36;;;;;;;;;;;;;;;22.95;5.46;101514.72;5095347;28;19920;-71
2021/12/09 03:39:03;;;;;;;;;;;;;;;22.98;5.47;101519.69;5095401;28;19974;-71
2021/12/09 03:41:28;;;;;;;;;;;;;;;22.96;5.40;101521.81;5095287;28;19977;-71
2021/12/09 03:43:53;;;;;;;;;;;;;;;22.91;5.50;101519.00;5095161;28;20358;-70
2021/12/09 03:46:18;;;;;;;;;;;;;;;22.93;5.49;101500.50;5094842;28;19916;-70
2021/12/09 03:48:44;;;;;;;;;;;;;;;22.96;5.49;101505.47;5094765;28;19916;-71
2021/12/09 03:51:09;;;;;;;;;;;;;;;22.94;5.40;101515.81;5094945;28;19917;-71
2021/12/09 03:53:34;;;;;;;;;;;;;;;22.99;5.40;101520.50;5094884;28;20274;-71
2021/12/09 03:55:59;;;;;;;;;;;;;;;22.97;5.33;101515.28;5094617;28;19939;-70
2021/12/09 03:58:25;;;;;;;;;;;;;;;22.90;5.52;101509.16;5094401;28;19955;-70
2021/12/09 04:00:51;;;;;;;;;;;;;;;22.99;5.56;101510.44;5094868;28;19920;-71
2021/12/09 04:03:17;;;;;;;;;;;;;;;23.04;5.55;101518.72;5094634;28;20007;-70
2021/12/09 04:05:42;;;;;;;;;;;;;;;23.11;5.44;101512.31;5094041;28;19916;-71
2021/12/09 04:08:08;;;;;;;;;;;;;;;23.17;5.65;101519.53;5095469;28;19923;-71
2021/12/09 04:10:33;;;;;;;;;;;;;;;23.21;5.44;101526.13;5102712;28;19977;-71
2021/12/09 04:12:58;;;;;;;;;;;;;;;23.26;5.45;101526.22;5095543;28;19924;-70
2021/12/09 04:15:24;;;;;;;;;;;;;;;23.29;5.50;101514.84;5094302;28;19939;-70
2021/12/09 04:17:49;;;;;;;;;;;;;;;23.33;5.36;101512.44;5076765;28;19938;-70
2021/12/09 04:20:14;;;;;;;;;;;;;;;23.36;5.38;101515.50;5094263;28;19916;-71
2021/12/09 04:22:41;;;;;;;;;;;;;;;23.32;5.63;101517.06;5094627;28;19945;-71
2021/12/09 04:25:08;;;;;;;;;;;;;;;23.39;5.38;101514.19;5088128;28;20307;-71
2021/12/09 04:27:33;;;;;;;;;;;;;;;23.42;5.55;101520.00;5075239;28;19916;-70
2021/12/09 04:29:58;;;;;;;;;;;;;;;23.47;5.45;101526.59;5081848;28;19916;-70
2021/12/09 04:32:23;;;;;;;;;;;;;;;23.49;5.59;101524.44;5062400;28;19956;-71
2021/12/09 04:34:53;;;;;;;;;;;;;;;23.51;5.32;101525.88;5080119;28;19917;-70
2021/12/09 04:37:18;;;;;;;;;;;;;;;23.53;5.58;101511.97;5078828;28;19916;-70
2021/12/09 04:39:44;;;;;;;;;;;;;;;23.56;5.41;101516.91;5079049;28;19917;-70
2021/12/09 04:42:09;;;;;;;;;;;;;;;23.58;5.53;101514.78;5078367;28;19916;-70
2021/12/09 04:44:35;;;;;;;;;;;;;;;23.59;5.47;101525.47;5077365;28;19916;-70
2021/12/09 04:47:01;;;;;;;;;;;;;;;23.59;5.54;101520.00;5074496;28;19963;-70
2021/12/09 04:49:47;;;;;;;;;;;;;;;23.63;5.41;101531.25;5074012;28;19924;-71
2021/12/09 04:52:14;;;;;;;;;;;;;;;23.67;5.55;101543.31;5073783;28;19916;-70
2021/12/09 04:54:42;;;;;;;;;;;;;;;23.68;5.44;101536.78;5073964;28;19993;-70
2021/12/09 04:57:10;;;;;;;;;;;;;;;23.70;5.54;101542.81;5073862;28;20078;-70
2021/12/09 04:59:35;;;;;;;;;;;;;;;23.72;5.28;101546.13;5073608;28;19966;-70
2021/12/09 05:02:01;;;;;;;;;;;;;;;23.74;5.50;101548.63;5073503;28;19966;-71
2021/12/09 05:04:27;;;;;;;;;;;;;;;23.74;5.42;101538.50;5073314;28;20011;-70
2021/12/09 05:06:53;;;;;;;;;;;;;;;23.78;5.58;101556.06;5073718;28;20377;-70
2021/12/09 05:09:18;;;;;;;;;;;;;;;23.79;5.45;101552.25;5073490;28;19916;-70
2021/12/09 05:14:12;;;;;;;;;;;;;;;23.84;5.59;101556.19;5073208;28;19917;-70
2021/12/09 05:16:39;;;;;;;;;;;;;;;23.83;5.40;101562.69;5075953;28;19917;-70
2021/12/09 05:19:04;;;;;;;;;;;;;;;23.84;5.51;101553.44;5077281;28;19920;-69
2021/12/09 05:21:36;;;;;;;;;;;;;;;23.85;5.40;101550.44;5076821;28;19921;-71
2021/12/09 05:24:02;;;;;;;;;;;;;;;23.88;5.60;101565.53;5059401;28;20283;-71
2021/12/09 05:26:32;;;;;;;;;;;;;;;23.89;5.36;101556.25;5092787;28;19965;-71
2021/12/09 05:28:57;;;;;;;;;;;;;;;23.89;5.37;101551.63;5097333;28;20335;-71
2021/12/09 05:34:07;;;;;;;;;;;;;;;23.93;5.45;101554.69;5097150;28;19927;-70
2021/12/09 05:36:32;;;;;;;;;;;;;;;23.94;5.42;101556.31;5097390;28;19920;-70
2021/12/09 05:38:57;;;;;;;;;;;;;;;23.94;5.49;101553.59;5097328;28;20416;-70
2021/12/09 05:41:23;;;;;;;;;;;;;;;23.95;5.39;101555.25;5097836;28;19916;-70
2021/12/09 05:43:48;;;;;;;;;;;;;;;23.98;5.43;101550.13;5097121;28;20362;-70
2021/12/09 05:46:13;;;;;;;;;;;;;;;24.00;5.51;101560.78;5097117;28;20419;-70
2021/12/09 05:48:41;;;;;;;;;;;;;;;23.98;5.63;101554.75;5097089;28;19939;-70
2021/12/09 05:51:06;;;;;;;;;;;;;;;24.03;5.59;101552.13;5097006;28;19954;-70
2021/12/09 05:53:31;;;;;;;;;;;;;;;24.04;5.53;101552.94;5097370;28;19962;-70
2021/12/09 05:55:56;;;;;;;;;;;;;;;24.05;5.69;101549.94;5096791;28;19920;-69
2021/12/09 05:58:23;;;;;;;;;;;;;;;24.02;5.66;101550.44;5097166;28;19916;-69
2021/12/09 06:00:48;;;;;;;;;;;;;;;24.03;5.40;101546.66;5096519;28;19944;-70
2021/12/09 06:03:14;;;;;;;;;;;;;;;24.07;5.62;101547.78;5096669;28;19916;-71
2021/12/09 06:05:39;;;;;;;;;;;;;;;24.07;5.71;101545.06;5096529;28;19916;-71
2021/12/09 06:08:04;;;;;;;;;;;;;;;24.09;5.52;101544.81;5096710;28;19977;-71
2021/12/09 06:10:30;;;;;;;;;;;;;;;24.12;5.39;101556.06;5078535;28;19924;-71
2021/12/09 06:12:55;;;;;;;;;;;;;;;24.13;5.77;101546.81;5096798;28;19916;-70
2021/12/09 06:15:21;;;;;;;;;;;;;;;24.12;5.75;101550.59;5096418;28;20287;-71
2021/12/09 06:17:47;;;;;;;;;;;;;;;24.15;5.43;101550.09;5096613;28;19927;-69
2021/12/09 06:20:12;;;;;;;;;;;;;;;24.10;5.81;101560.13;5096010;28;19923;-70
2021/12/09 06:22:38;;;;;;;;;;;;;;;24.17;5.86;101556.13;5095841;28;19924;-69
2021/12/09 06:25:03;;;;;;;;;;;;;;;24.18;5.67;101560.53;5093639;28;19923;-70
2021/12/09 06:27:28;;;;;;;;;;;;;;;24.18;5.57;101563.28;5075712;28;19917;-70
2021/12/09 06:29:54;;;;;;;;;;;;;;;24.20;5.45;101565.75;5075909;28;19916;-70
2021/12/09 06:32:19;;;;;;;;;;;;;;;24.19;5.69;101572.28;5076415;28;19923;-70
2021/12/09 06:34:44;;;;;;;;;;;;;;;24.20;5.45;101584.88;5076405;28;19917;-71
2021/12/09 06:37:09;;;;;;;;;;;;;;;24.24;5.54;101587.94;5076250;28;19916;-73
2021/12/09 06:39:35;;;;;;;;;;;;;;;24.23;5.61;101583.53;5075544;28;19917;-70
2021/12/09 06:42:00;;;;;;;;;;;;;;;24.06;5.63;101584.38;5076236;28;19959;-70
2021/12/09 06:44:25;;;;;;;;;;;;;;;24.21;5.63;101581.03;5076626;28;20346;-71
2021/12/09 06:46:51;;;;;;;;;;;;;;;24.25;5.77;101589.56;5077479;28;20347;-70
2021/12/09 06:49:16;;;;;;;;;;;;;;;24.26;5.64;101591.22;5079547;28;19916;-70
2021/12/09 06:51:41;;;;;;;;;;;;;;;24.28;5.83;101591.81;5078524;28;20024;-70
2021/12/09 06:54:07;;;;;;;;;;;;;;;24.31;5.69;101586.66;5079728;28;19939;-69
2021/12/09 06:56:32;;;;;;;;;;;;;;;24.32;5.83;101596.53;5081239;28;19939;-69
2021/12/09 06:58:58;;;;;;;;;;;;;;;24.34;5.80;101590.81;5080338;28;19916;-69
2021/12/09 07:01:23;;;;;;;;;;;;;;;24.38;5.67;101600.16;5076121;28;19917;-68
2021/12/09 07:03:50;;;;;;;;;;;;;;;24.40;5.87;101594.44;5082415;28;19916;-69
2021/12/09 07:06:16;;;;;;;;;;;;;;;24.24;6.03;101594.22;5082814;28;19927;-68
2021/12/09 07:08:46;;;;;;;;;;;;;;;24.37;5.92;101590.31;5081099;28;19917;-68
2021/12/09 07:11:15;;;;;;;;;;;;;;;24.42;6.06;101598.56;5064609;28;19975;-69
2021/12/09 07:13:40;;;;;;;;;;;;;;;24.49;6.14;101596.50;5082336;28;20062;-68
2021/12/09 07:16:06;;;;;;;;;;;;;;;24.53;5.98;101605.84;5078846;28;19947;-68
2021/12/09 07:18:31;;;;;;;;;;;;;;;24.50;6.25;101603.59;5077103;28;19923;-68
2021/12/09 07:20:56;;;;;;;;;;;;;;;24.56;6.06;101593.63;5075367;28;19951;-68
2021/12/09 07:23:21;;;;;;;;;;;;;;;24.58;6.05;101604.28;5059210;28;19973;-71
2021/12/09 07:25:47;;;;;;;;;;;;;;;24.62;6.12;101605.44;5085805;28;20259;-69
2021/12/09 07:28:12;;;;;;;;;;;;;;;24.60;6.20;101604.88;5078523;28;20374;-69
2021/12/09 07:30:38;;;;;;;;;;;;;;;24.61;5.83;101606.50;5096947;28;19916;-68
2021/12/09 07:33:03;;;;;;;;;;;;;;;24.68;6.10;101599.78;5095550;28;19948;-70
2021/12/09 07:35:30;;;;;;;;;;;;;;;24.69;6.17;101598.69;5095053;28;20246;-68
2021/12/09 07:37:59;;;;;;;;;;;;;;;24.72;6.09;101605.56;5095334;28;19923;-69
2021/12/09 07:40:24;;;;;;;;;;;;;;;24.72;5.91;101611.03;5095532;28;19920;-69
2021/12/09 07:42:50;;;;;;;;;;;;;;;24.75;6.18;101607.81;5080725;28;19928;-69
2021/12/09 07:45:15;;;;;;;;;;;;;;;24.80;6.02;101598.84;5079481;28;19939;-68
2021/12/09 07:47:40;;;;;;;;;;;;;;;24.77;6.16;101597.44;5077970;28;19938;-69
2021/12/09 07:50:07;;;;;;;;;;;;;;;24.77;6.09;101594.72;5095928;28;20011;-70
2021/12/09 07:52:32;;;;;;;;;;;;;;;24.76;6.25;101593.06;5096350;28;20034;-69
2021/12/09 07:54:58;;;;;;;;;;;;;;;24.84;6.13;101600.81;5096289;28;20282;-69
2021/12/09 07:57:23;;;;;;;;;;;;;;;24.87;6.20;101605.78;5095963;28;19916;-70
2021/12/09 07:59:49;;;;;;;;;;;;;;;24.91;6.01;101617.84;5094371;28;19923;-69
2021/12/09 08:02:15;;;;;;;;;;;;;;;24.89;5.78;101620.03;5095721;28;19923;-69
2021/12/09 08:04:40;;;;;;;;;;;;;;;24.87;6.02;101622.19;5095103;28;19916;-69
2021/12/09 08:07:05;;;;;;;;;;;;;;;24.90;5.82;101618.91;5094675;28;19923;-69
2021/12/09 08:09:31;;;;;;;;;;;;;;;24.97;5.90;101629.66;5094841;28;19916;-70
2021/12/09 08:11:56;;;;;;;;;;;;;;;24.97;5.71;101631.59;5094755;28;20151;-69
2021/12/09 08:14:21;;;;;;;;;;;;;;;25.00;5.89;101631.09;5075977;28;19999;-69
2021/12/09 08:16:56;;;;;;;;;;;;;;;24.93;5.98;101637.56;5094938;28;19931;-71
2021/12/09 08:19:21;;;;;;;;;;;;;;;24.98;6.06;101645.00;5094946;28;19969;-71
2021/12/09 08:21:47;;;;;;;;;;;;;;;25.04;6.01;101643.16;5094639;28;19924;-71
2021/12/09 08:24:12;;;;;;;;;;;;;;;25.09;6.12;101645.97;5094146;28;19927;-70
2021/12/09 08:26:37;;;;;;;;;;;;;;;25.10;6.21;101648.44;5080107;28;19999;-71
2021/12/09 08:29:03;;;;;;;;;;;;;;;25.12;5.93;101640.00;5074093;28;19978;-71
2021/12/09 08:31:29;;;;;;;;;;;;;;;25.09;5.87;101641.34;5074517;28;19916;-70
2021/12/09 08:33:56;;;;;;;;;;;;;;;25.08;6.00;101644.31;5074928;28;19939;-70
2021/12/09 08:36:21;;;;;;;;;;;;;;;25.10;5.99;101637.50;5074742;28;19952;-70
2021/12/09 08:38:46;;;;;;;;;;;;;;;25.11;5.88;101641.06;5074857;28;19921;-71
2021/12/09 08:41:14;;;;;;;;;;;;;;;25.11;6.14;101641.91;5074242;28;20329;-71
2021/12/09 08:43:39;;;;;;;;;;;;;;;25.07;6.04;101638.00;5055441;28;20027;-70
2021/12/09 08:46:04;;;;;;;;;;;;;;;25.10;5.81;101642.16;5022534;28;19932;-71
2021/12/09 08:48:29;;;;;;;;;;;;;;;25.10;5.81;101647.63;5073981;28;19992;-71
2021/12/09 08:50:55;;;;;;;;;;;;;;;25.08;5.82;101652.53;5075335;28;19970;-72
2021/12/09 08:53:21;;;;;;;;;;;;;;;25.14;6.02;101637.00;5078205;28;19917;-72
2021/12/09 08:55:46;;;;;;;;;;;;;;;25.12;6.18;101635.34;5077517;28;19946;-70
2021/12/09 08:58:12;;;;;;;;;;;;;;;25.09;5.86;101643.22;5078607;28;19922;-70
2021/12/09 09:00:37;;;;;;;;;;;;;;;25.11;5.87;101633.69;5080235;28;19920;-70
2021/12/09 09:03:03;;;;;;;;;;;;;;;25.11;5.92;101638.31;5080811;28;20386;-69
2021/12/09 09:05:28;;;;;;;;;;;;;;;25.08;5.94;101631.47;5078324;28;20450;-70
2021/12/09 09:07:54;;;;;;;;;;;;;;;25.08;5.67;101639.66;5080697;28;19993;-70
2021/12/09 09:10:20;;;;;;;;;;;;;;;25.10;5.51;101634.75;5078718;28;19924;-71
2021/12/09 09:12:45;;;;;;;;;;;;;;;25.09;5.74;101638.59;5078730;28;19920;-70
2021/12/09 09:15:11;;;;;;;;;;;;;;;25.10;5.62;101640.25;5043922;28;19979;-70
2021/12/09 09:17:37;;;;;;;;;;;;;;;25.07;5.87;101638.00;5077534;28;19936;-70
2021/12/09 09:20:06;;;;;;;;;;;;;;;25.12;5.89;101640.00;5077473;28;19961;-70
2021/12/09 09:22:31;;;;;;;;;;;;;;;25.09;5.81;101641.34;5077591;28;19925;-69
2021/12/09 09:24:56;;;;;;;;;;;;;;;25.13;5.69;101636.19;5060729;28;19924;-69
2021/12/09 09:27:22;;;;;;;;;;;;;;;25.12;5.55;101629.03;5096823;28;20428;-71
2021/12/09 09:29:47;;;;;;;;;;;;;;;25.14;5.80;101615.94;5079946;28;19920;-71
2021/12/09 09:32:13;;;;;;;;;;;;;;;25.11;5.54;101630.13;5098765;28;19916;-71
2021/12/09 09:34:38;;;;;;;;;;;;;;;25.10;5.46;101625.75;5098940;28;19916;-70
2021/12/09 09:37:04;;;;;;;;;;;;;;;25.11;5.69;101630.13;5097551;28;19927;-70
2021/12/09 09:39:31;;;;;;;;;;;;;;;25.17;5.62;101622.81;5097373;28;20006;-71
2021/12/09 09:42:06;;;;;;;;;;;;;;;25.15;5.66;101616.75;5098185;28;19916;-70
2021/12/09 09:44:45;;;;;;;;;;;;;;;25.16;5.68;101613.75;5097202;28;20270;-70
2021/12/09 09:47:10;;;;;;;;;;;;;;;25.16;5.89;101608.28;5097015;28;19916;-69
2021/12/09 09:49:35;;;;;;;;;;;;;;;25.17;5.76;101615.44;5096855;28;19924;-69
2021/12/09 09:52:01;;;;;;;;;;;;;;;25.15;5.90;101606.66;5096724;28;19977;-69
2021/12/09 09:54:26;;;;;;;;;;;;;;;25.16;5.62;101596.53;5096443;28;20037;-70
2021/12/09 09:56:52;;;;;;;;;;;;;;;25.14;5.83;101588.59;5096924;28;20011;-70
2021/12/09 09:59:17;;;;;;;;;;;;;;;25.15;5.62;101584.78;5079021;28;19944;-69
2021/12/09 10:01:43;;;;;;;;;;;;;;;25.14;5.62;101583.13;5096724;28;19962;-69
2021/12/09 10:04:21;;;;;;;;;;;;;;;25.12;5.68;101585.28;5096659;28;19916;-70
2021/12/09 10:06:46;;;;;;;;;;;;;;;25.17;5.76;101588.06;5081170;28;19924;-69
2021/12/09 10:09:11;;;;;;;;;;;;;;;25.20;5.99;101594.94;5097987;28;19916;-70
2021/12/09 10:11:37;;;;;;;;;;;;;;;25.19;5.82;101607.78;5097100;28;20381;-69
2021/12/09 10:14:13;;;;;;;;;;;;;;;25.21;5.95;101610.28;5097046;28;19916;-69
2021/12/09 10:16:38;;;;;;;;;;;;;;;25.18;5.84;101614.34;5096415;28;19924;-71
2021/12/09 10:19:11;;;;;;;;;;;;;;;25.15;5.84;101603.06;5096130;28;20259;-70
2021/12/09 10:21:37;;;;;;;;;;;;;;;25.18;5.83;101616.25;5096245;28;20318;-70
2021/12/09 10:24:06;;;;;;;;;;;;;;;25.18;6.13;101611.63;5096189;28;20008;-68
2021/12/09 10:26:32;;;;;;;;;;;;;;;25.20;6.09;101614.06;5084717;28;19916;-69
2021/12/09 10:29:00;;;;;;;;;;;;;;;25.22;6.07;101611.94;5075813;28;19920;-69
2021/12/09 10:31:27;;;;;;;;;;;;;;;25.24;6.18;101613.31;5075842;28;20260;-70
2021/12/09 10:34:05;;;;;;;;;;;;;;;25.23;6.15;101611.69;5076659;28;19962;-69
2021/12/09 10:36:43;;;;;;;;;;;;;;;25.24;6.01;101617.97;5076063;28;20345;-71
2021/12/09 10:39:15;;;;;;;;;;;;;;;25.24;5.89;101618.78;5076142;28;19916;-70
2021/12/09 10:41:40;;;;;;;;;;;;;;;25.29;6.20;101623.53;5076113;28;20429;-70
2021/12/09 10:44:05;;;;;;;;;;;;;;;25.28;5.92;101617.25;5076187;28;19917;-70
2021/12/09 10:47:04;;;;;;;;;;;;;;;25.30;6.12;101616.97;5057858;28;20298;-70
2021/12/09 10:49:34;;;;;;;;;;;;;;;25.27;6.18;101612.84;5076143;28;19917;-70
2021/12/09 10:52:00;;;;;;;;;;;;;;;25.33;5.93;101618.38;5075569;28;19970;-70
2021/12/09 10:54:33;;;;;;;;;;;;;;;25.34;6.08;101614.56;5057947;28;19928;-70
2021/12/09 10:57:18;;;;;;;;;;;;;;;25.32;5.99;101619.44;5075818;28;19927;-70
2021/12/09 10:59:43;;;;;;;;;;;;;;;25.41;6.23;101621.47;5075369;28;19916;-70
2021/12/09 11:02:09;;;;;;;;;;;;;;;25.41;6.36;101631.59;5077899;28;19938;-71
2021/12/09 11:04:34;;;;;;;;;;;;;;;25.43;5.94;101630.25;5042215;28;20285;-71
2021/12/09 11:06:59;;;;;;;;;;;;;;;25.42;6.03;101639.56;5075293;28;20011;-71
2021/12/09 11:09:25;;;;;;;;;;;;;;;25.44;6.23;101636.53;5057839;28;20335;-70
2021/12/09 11:11:53;;;;;;;;;;;;;;;25.43;6.32;101635.72;5075860;28;19939;-71
2021/12/09 11:14:21;;;;;;;;;;;;;;;25.45;6.44;101639.00;5057990;28;19917;-70
2021/12/09 11:16:49;;;;;;;;;;;;;;;25.43;6.31;101635.72;5075085;28;19924;-70
2021/12/09 11:19:18;;;;;;;;;;;;;;;25.54;6.19;101638.56;5075684;28;19916;-71
2021/12/09 11:21:46;;;;;;;;;;;;;;;25.47;6.23;101642.34;5075133;28;19920;-71
2021/12/09 11:24:16;;;;;;;;;;;;;;;25.49;6.24;101639.31;5075247;28;20466;-71
2021/12/09 11:27:03;;;;;;;;;;;;;;;25.49;6.47;101639.31;5086979;28;20419;-71
2021/12/09 11:29:36;;;;;;;;;;;;;;;25.48;6.32;101648.63;5095731;28;19920;-71
2021/12/09 11:32:19;;;;;;;;;;;;;;;25.46;6.45;101639.88;5095275;28;19923;-71
2021/12/09 11:34:48;;;;;;;;;;;;;;;25.44;6.28;101631.06;5077815;28;19948;-71
2021/12/09 11:39:56;;;;;;;;;;;;;;;25.46;6.23;101615.22;5095005;28;19916;-71
2021/12/09 11:42:27;;;;;;;;;;;;;;;25.43;6.14;101613.81;5095676;28;19968;-71
2021/12/09 11:44:52;;;;;;;;;;;;;;;25.52;6.04;101619.66;5077738;28;19923;-71
2021/12/09 11:47:17;;;;;;;;;;;;;;;25.46;6.23;101615.22;5095220;28;19916;-71
2021/12/09 11:49:43;;;;;;;;;;;;;;;25.53;6.41;101617.78;5095184;28;19970;-71
2021/12/09 11:52:10;;;;;;;;;;;;;;;25.52;6.39;101618.84;5095369;28;19943;-71
2021/12/09 11:54:35;;;;;;;;;;;;;;;25.47;6.26;101612.25;5096331;28;19916;-72
2021/12/09 11:57:14;;;;;;;;;;;;;;;25.47;6.30;101609.50;5077055;28;19946;-71
2021/12/09 12:06:38;;;;;;;;;;;;;;;25.48;6.29;101608.41;5078923;28;19944;-71
2021/12/09 12:13:59;;;;;;;;;;;;;;;25.40;6.18;101602.56;5032388;28;19918;-70
2021/12/09 12:16:45;;;;;;;;;;;;;;;25.38;6.16;101600.09;5032305;28;19967;-71
2021/12/09 12:25:05;;;;;;;;;;;;;;;25.40;6.27;101603.38;5032492;28;19925;-71
2021/12/09 12:35:31;;;;;;;;;;;;;;;25.33;6.42;101594.56;4996680;28;19917;-71
2021/12/09 12:38:29;;;;;;;;;;;;;;;25.38;6.17;101593.81;5012184;28;19953;-71
2021/12/09 12:41:07;;;;;;;;;;;;;;;25.42;6.23;101603.13;5000108;28;20343;-72
2021/12/09 12:43:37;;;;;;;;;;;;;;;25.41;6.14;101599.59;5012292;28;19945;-71
2021/12/09 12:46:13;;;;;;;;;;;;;;;25.42;6.16;101605.88;5012805;28;19917;-71
2021/12/09 12:49:07;;;;;;;;;;;;;;;25.44;6.13;101590.84;5012091;28;19924;-71
2021/12/09 12:51:47;;;;;;;;;;;;;;;25.38;6.32;101594.63;5058781;28;19917;-70
2021/12/09 12:54:14;;;;;;;;;;;;;;;25.41;6.17;101594.09;5074205;28;19999;-70
2021/12/09 12:56:40;;;;;;;;;;;;;;;25.39;6.03;101603.66;5074490;28;19942;-71
2021/12/09 13:01:31;;;;;;;;;;;;;;;25.40;6.11;101595.19;5073695;28;19981;-71
2021/12/09 13:04:04;;;;;;;;;;;;;;;25.42;6.38;101600.41;5073727;28;20363;-71
2021/12/09 13:06:48;;;;;;;;;;;;;;;25.43;6.12;101596.59;5073766;28;20290;-70
2021/12/09 13:09:25;;;;;;;;;;;;;;;25.44;6.03;101603.69;5056492;28;20378;-71
2021/12/09 13:11:58;;;;;;;;;;;;;;;25.46;6.01;101601.56;5056485;28;19916;-70
2021/12/09 13:14:28;;;;;;;;;;;;;;;25.44;6.01;101598.22;5056405;28;19920;-71
2021/12/09 13:17:31;;;;;;;;;;;;;;;25.46;5.97;101601.56;5073400;28;19923;-70
2021/12/09 13:19:58;;;;;;;;;;;;;;;25.45;6.01;101600.72;5068878;28;19970;-71
2021/12/09 13:22:31;;;;;;;;;;;;;;;25.45;5.93;101600.72;5073326;28;19935;-72
2021/12/09 13:25:22;;;;;;;;;;;;;;;25.44;5.96;101610.03;5073758;28;19939;-71